Data for 07/11/2005

Time Sea-Level Adjusted Pressure Absolute Pressure Temperature Relative Humidity Dew Point   
(mb) (inHg) (mb) (inHg) (C) (F) (%) (C) (F)
00:05 1020 30.12 849 25.07 12.7 54.8 94 11.7 53.1
00:10 1020 30.12 849 25.07 12.8 55 94 11.8 53.2
00:15 1020 30.12 849 25.07 12.8 55 94 11.9 53.4
00:20 1020 30.12 849 25.07 12.7 54.9 95 11.9 53.4
00:25 1020 30.12 849 25.07 12.7 54.8 95 11.9 53.5
00:30 1020 30.12 849 25.07 12.7 54.9 95 11.9 53.5
00:35 1020 30.12 849 25.07 12.8 55 94 11.9 53.4
00:40 1020 30.12 849 25.07 12.8 55 93 11.7 53
00:45 1020 30.12 849 25.07 12.9 55.3 92 11.6 52.9
00:50 1020 30.12 849 25.07 13.1 55.6 91 11.7 53.1
00:55 1020 30.12 849 25.07 13 55.4 92 11.8 53.2
01:00 1020 30.12 849 25.07 12.9 55.3 92 11.7 53.1
01:05 1020 30.12 849 25.07 12.9 55.3 91 11.5 52.7
01:10 1020 30.12 849 25.07 13 55.4 92 11.7 53
01:15 1020 30.12 849 25.07 13 55.4 91 11.5 52.8
01:20 1020 30.12 849 25.07 13.1 55.6 90 11.5 52.8
01:25 1020 30.12 849 25.07 13.1 55.7 91 11.8 53.2
01:30 1020 30.12 849 25.07 13 55.4 92 11.8 53.2
01:35 1020 30.12 849 25.07 12.9 55.1 92 11.6 52.9
01:40 1020 30.12 849 25.07 12.8 55.1 93 11.8 53.2
01:45 1020 30.12 849 25.07 12.8 55 93 11.6 52.9
01:50 1020 30.12 849 25.07 12.7 54.9 93 11.6 52.8
01:55 1020 30.12 849 25.07 12.7 54.9 93 11.7 53
02:00 1020 30.12 849 25.07 12.6 54.7 93 11.5 52.8
02:05 1020 30.12 849 25.07 12.6 54.7 94 11.6 52.9
02:10 1020 30.12 849 25.07 12.5 54.5 94 11.6 52.8
02:15 1020 30.12 849 25.07 12.6 54.6 93 11.5 52.7
02:20 1020 30.12 849 25.07 12.5 54.5 94 11.5 52.8
02:25 1020 30.12 849 25.07 12.5 54.4 94 11.5 52.7
02:30 1020 30.12 849 25.07 12.4 54.4 94 11.5 52.7
02:35 1020 30.12 849 25.07 12.4 54.3 94 11.4 52.5
02:40 1020 30.12 849 25.07 12.4 54.2 94 11.5 52.6
02:45 1020 30.12 849 25.07 12.3 54.1 94 11.3 52.4
02:50 1020 30.12 850 25.1 12.3 54.1 94 11.3 52.4
02:55 1020 30.12 850 25.1 12.3 54.1 94 11.3 52.3
03:00 1020 30.12 850 25.1 12.4 54.3 95 11.5 52.8
03:05 1020 30.12 850 25.1 12.4 54.4 94 11.5 52.6
03:10 1020 30.12 850 25.1 12.3 54.1 95 11.4 52.6
03:15 1021 30.15 850 25.1 12.2 53.9 95 11.4 52.5
03:20 1021 30.15 850 25.1 12.1 53.7 95 11.3 52.4
03:25 1021 30.15 850 25.1 12.1 53.7 95 11.3 52.3
03:30 1021 30.15 850 25.1 12.2 54 94 11.3 52.3
03:35 1021 30.15 850 25.1 12.3 54.1 93 11.1 52
03:40 1021 30.15 850 25.1 12.3 54.1 93 11.2 52.1
03:45 1021 30.15 850 25.1 12.4 54.2 92 11.1 52
03:50 1021 30.15 850 25.1 12.3 54.2 93 11.3 52.3
03:55 1021 30.15 850 25.1 12.2 54 94 11.4 52.4
04:00 1021 30.15 850 25.1 12.2 53.9 95 11.3 52.4
04:05 1021 30.15 850 25.1 12.1 53.8 95 11.3 52.4
04:10 1021 30.15 850 25.1 12.1 53.7 95 11.3 52.3
04:15 1021 30.15 850 25.1 12.1 53.8 94 11.2 52.2
04:20 1021 30.15 850 25.1 12.2 54 95 11.4 52.5
04:25 1021 30.15 850 25.1 12.3 54.2 94 11.4 52.5
04:30 1021 30.15 850 25.1 12.3 54.2 95 11.5 52.7
04:35 1021 30.15 850 25.1 12.2 53.9 96 11.5 52.7
04:40 1021 30.15 850 25.1 12.1 53.8 95 11.4 52.5
04:45 1021 30.15 850 25.1 12.1 53.8 95 11.4 52.4
04:50 1021 30.15 850 25.1 12.1 53.8 94 11.2 52.2
04:55 1021 30.15 850 25.1 12.1 53.7 95 11.2 52.2
05:00 1021 30.15 850 25.1 11.8 53.2 96 11.1 52
05:05 1021 30.15 850 25.1 11.6 52.8 96 11 51.8
05:10 1021 30.15 850 25.1 11.6 52.8 97 11 51.9
05:15 1021 30.15 850 25.1 11.5 52.7 96 10.9 51.6
05:20 1021 30.15 850 25.1 11.5 52.6 96 10.9 51.6
05:25 1021 30.15 850 25.1 11.5 52.8 96 10.9 51.6
05:30 1021 30.15 850 25.1 11.6 52.8 95 10.8 51.5
05:35 1021 30.15 851 25.13 11.6 52.9 95 10.9 51.6
05:40 1021 30.15 851 25.13 11.6 52.8 95 10.9 51.5
05:45 1021 30.15 851 25.13 11.5 52.7 96 10.8 51.4
05:50 1021 30.15 851 25.13 11.5 52.6 95 10.8 51.4
05:55 1022 30.18 851 25.13 11.6 52.8 96 10.9 51.6
06:00 1022 30.18 851 25.13 11.6 52.9 94 10.7 51.3
06:05 1022 30.18 851 25.13 11.6 52.9 94 10.8 51.4
06:10 1022 30.18 851 25.13 11.8 53.3 93 10.8 51.4
06:15 1022 30.18 851 25.13 12 53.7 92 10.8 51.4
06:20 1022 30.18 851 25.13 12.2 53.9 91 10.8 51.4
06:25 1022 30.18 851 25.13 12.3 54.2 91 11 51.8
06:30 1022 30.18 851 25.13 12.4 54.4 92 11.1 52
06:35 1022 30.18 851 25.13 12.2 54 92 11 51.8
06:40 1022 30.18 851 25.13 11.9 53.3 94 10.9 51.7
06:45 1022 30.18 851 25.13 11.7 53.1 94 10.7 51.3
06:50 1022 30.18 851 25.13 11.7 53 94 10.7 51.3
06:55 1022 30.18 851 25.13 11.7 53.1 94 10.8 51.4
07:00 1022 30.18 851 25.13 11.8 53.3 93 10.8 51.4
07:05 1022 30.18 851 25.13 12.2 53.9 91 10.7 51.2
07:10 1022 30.18 851 25.13 12.7 54.9 90 11.1 51.9
07:15 1022 30.18 851 25.13 13.1 55.5 89 11.3 52.3
07:20 1022 30.18 851 25.13 13 55.4 89 11.2 52.2
07:25 1022 30.18 851 25.13 13.5 56.3 86 11.2 52.2
07:30 1022 30.18 852 25.16 13.2 55.8 87 11.1 51.9
07:35 1022 30.18 852 25.16 13.2 55.7 87 11.1 52
07:40 1022 30.18 852 25.16 13.3 56 88 11.3 52.4
07:45 1022 30.18 852 25.16 13.4 56.2 86 11.1 52
07:50 1022 30.18 852 25.16 13.9 57 82 11 51.7
07:55 1022 30.18 852 25.16 14.3 57.8 81 11.1 51.9
08:00 1022 30.18 852 25.16 14.6 58.3 80 11.2 52.1
08:05 1023 30.21 852 25.16 15.1 59.2 79 11.6 52.8
08:10 1023 30.21 852 25.16 15.7 60.3 74 11.2 52.2
08:15 1023 30.21 852 25.16 16 60.8 73 11.3 52.4
08:20 1023 30.21 852 25.16 16 60.7 75 11.5 52.8
08:25 1023 30.21 852 25.16 16.4 61.4 70 11 51.9
08:30 1023 30.21 852 25.16 16.8 62.2 71 11.4 52.6
08:35 1023 30.21 852 25.16 17.2 63 68 11.3 52.3
08:40 1023 30.21 852 25.16 17.6 63.8 67 11.4 52.6
08:45 1023 30.21 852 25.16 17.8 64 67 11.7 53
08:50 1023 30.21 852 25.16 16.6 61.9 72 11.6 52.9
08:55 1023 30.21 852 25.16 16.7 62 72 11.6 52.8
09:00 1023 30.21 852 25.16 16.5 61.7 72 11.5 52.8
09:05 1023 30.21 852 25.16 16.9 62.5 70 11.4 52.6
09:10 1023 30.21 852 25.16 17.5 63.6 67 11.5 52.6
09:15 1023 30.21 852 25.16 18.3 64.9 65 11.6 52.8
09:20 1023 30.21 852 25.16 18.5 65.3 65 11.8 53.3
09:25 1023 30.21 852 25.16 18.2 64.8 65 11.7 53.1
09:30 1023 30.21 852 25.16 18.7 65.6 63 11.6 52.9
09:35 1023 30.21 852 25.16 18.7 65.6 65 12 53.5
09:40 1023 30.21 852 25.16 18.4 65.1 66 12 53.6
09:45 1023 30.21 852 25.16 18.4 65.2 64 11.6 52.8
09:50 1023 30.21 852 25.16 18.9 65.9 62 11.4 52.5
09:55 1023 30.21 852 25.16 19 66.1 60 11.1 52
10:00 1023 30.21 852 25.16 19.3 66.7 58 11 51.9
10:05 1023 30.21 852 25.16 18.8 65.9 60 11 51.7
10:10 1023 30.21 852 25.16 19.3 66.7 59 11.2 52.2
10:15 1023 30.21 852 25.16 19.3 66.7 58 11 51.8
10:20 1023 30.21 852 25.16 19.1 66.3 57 10.6 51
10:25 1023 30.21 852 25.16 19.2 66.6 61 11.5 52.8
10:30 1023 30.21 852 25.16 19 66.1 62 11.7 53
10:35 1023 30.21 852 25.16 19.1 66.5 59 11.1 51.9
10:40 1023 30.21 852 25.16 19.6 67.2 57 11 51.9
10:45 1023 30.21 852 25.16 19.7 67.4 58 11.3 52.4
10:50 1023 30.21 852 25.16 20.5 68.8 53 10.6 51.1
10:55 1023 30.21 852 25.16 21.4 70.4 51 11 51.8
11:00 1023 30.21 852 25.16 20.7 69.3 56 11.7 53.1
11:05 1023 30.21 852 25.16 20.4 68.6 52 10.3 50.6
11:10 1023 30.21 852 25.16 20.9 69.5 53 11 51.8
11:15 1023 30.21 852 25.16 21 69.9 51 10.8 51.4
11:20 1023 30.21 852 25.16 21.2 70.1 49 10.2 50.3
11:25 1023 30.21 852 25.16 21.2 70.1 50 10.5 50.8
11:30 1023 30.21 852 25.16 21.4 70.6 48 10 50.1
11:35 1023 30.21 852 25.16 21.8 71.2 46 9.7 49.4
11:40 1023 30.21 852 25.16 20.9 69.5 49 9.8 49.6
11:45 1023 30.21 852 25.16 21.2 70.1 48 10 50
11:50 1023 30.21 852 25.16 21.7 71 45 9.5 49
11:55 1023 30.21 852 25.16 21.6 70.9 45 9.2 48.6
12:00 1023 30.21 852 25.16 21.3 70.3 46 9.4 48.8
12:05 1023 30.21 852 25.16 22.2 72 44 9.6 49.3
12:10 1023 30.21 852 25.16 21.8 71.3 46 9.8 49.7
12:15 1023 30.21 852 25.16 21.3 70.3 46 9.4 48.8
12:20 1023 30.21 852 25.16 21.7 71.1 44 9.2 48.6
12:25 1023 30.21 852 25.16 22.5 72.4 44 9.7 49.4
12:30 1023 30.21 852 25.16 22.2 71.9 45 9.8 49.6
12:35 1023 30.21 852 25.16 22.4 72.2 43 9.2 48.6
12:40 1023 30.21 852 25.16 22.8 73.1 42 9.3 48.8
12:45 1023 30.21 852 25.16 22.8 73.1 42 9.3 48.7
12:50 1023 30.21 852 25.16 23.1 73.5 42 9.8 49.7
12:55 1023 30.21 852 25.16 22.3 72.1 41 8.7 47.7
13:00 1023 30.21 852 25.16 23 73.3 42 9.5 49.1
13:05 1023 30.21 852 25.16 23.3 73.9 40 9.2 48.5
13:10 1023 30.21 852 25.16 23 73.4 42 9.5 49.2
13:15 1022 30.18 852 25.16 23.5 74.3 40 9.4 49
13:20 1023 30.21 852 25.16 23.4 74.2 40 9.4 48.9
13:25 1023 30.21 852 25.16 23.5 74.4 38 8.7 47.7
13:30 1023 30.21 852 25.16 24.3 75.7 37 8.7 47.7
13:35 1022 30.18 852 25.16 24.4 75.9 39 9.8 49.7
13:40 1022 30.18 852 25.16 24.1 75.3 39 9.6 49.3
13:45 1023 30.21 852 25.16 23.6 74.5 39 9 48.3
13:50 1023 30.21 852 25.16 24.6 76.4 35 8.3 46.9
13:55 1022 30.18 852 25.16 24.9 76.8 34 8.4 47.1
14:00 1022 30.18 852 25.16 25 77.1 35 8.9 48
14:05 1022 30.18 852 25.16 24.8 76.6 35 8.3 46.9
14:10 1022 30.18 852 25.16 25.2 77.3 34 8.4 47.2
14:15 1022 30.18 851 25.13 25.3 77.5 34 8.6 47.4
14:20 1022 30.18 851 25.13 25.7 78.3 33 8.6 47.5
14:25 1022 30.18 851 25.13 26.3 79.3 32 8.5 47.2
14:30 1022 30.18 851 25.13 25.7 78.2 33 8.5 47.3
14:35 1022 30.18 851 25.13 25.4 77.7 33 8.1 46.6
14:40 1022 30.18 851 25.13 25.4 77.8 34 8.5 47.3
14:45 1022 30.18 851 25.13 25.3 77.6 33 8 46.5
14:50 1022 30.18 851 25.13 25.8 78.4 33 8.3 47
14:55 1022 30.18 851 25.13 26.3 79.3 30 7.5 45.5
15:00 1022 30.18 851 25.13 26.5 79.7 30 8 46.3
15:05 1022 30.18 851 25.13 26.8 80.2 30 7.8 46.1
15:10 1022 30.18 851 25.13 26.5 79.6 29 7.3 45.2
15:15 1022 30.18 851 25.13 26.1 78.9 30 7.4 45.4
15:20 1022 30.18 851 25.13 26 78.8 30 7.2 45
15:25 1022 30.18 851 25.13 26.9 80.4 30 8.2 46.7
15:30 1022 30.18 851 25.13 26.7 80.1 30 7.9 46.3
15:35 1022 30.18 851 25.13 26.8 80.2 29 7.4 45.3
15:40 1022 30.18 851 25.13 26.9 80.3 28 7 44.6
15:45 1022 30.18 851 25.13 26.8 80.2 27 6.7 44
15:50 1022 30.18 851 25.13 27.1 80.7 26 6.1 43.1
15:55 1022 30.18 851 25.13 27.2 80.9 27 6.7 44
16:00 1022 30.18 851 25.13 26.8 80.2 26 6.1 42.9
16:05 1022 30.18 851 25.13 26.8 80.3 25 5.5 41.8
16:10 1022 30.18 851 25.13 26.9 80.4 26 6.1 43
16:15 1022 30.18 851 25.13 26.5 79.7 26 5.8 42.4
16:20 1022 30.18 851 25.13 27.2 81 25 6 42.8
16:25 1022 30.18 851 25.13 27.7 81.8 24 5.7 42.2
16:30 1022 30.18 851 25.13 27.3 81.1 25 5.9 42.7
16:35 1022 30.18 851 25.13 26.9 80.4 28 6.9 44.4
16:40 1022 30.18 851 25.13 26.5 79.7 24 4.6 40.3
16:45 1022 30.18 851 25.13 26.3 79.3 26 5.3 41.6
16:50 1022 30.18 851 25.13 25.9 78.6 26 5.1 41.2
16:55 1022 30.18 851 25.13 26.3 79.4 26 5.3 41.5
17:00 1022 30.18 851 25.13 26 78.7 26 5.1 41.3
17:05 1022 30.18 851 25.13 26.5 79.8 26 5.5 42
17:10 1022 30.18 851 25.13 27.1 80.8 24 5 41
17:15 1022 30.18 851 25.13 27.1 80.8 25 5.7 42.3
17:20 1021 30.15 851 25.13 27.3 81.2 23 4.9 40.9
17:25 1022 30.18 851 25.13 28 82.4 23 5.5 41.9
17:30 1022 30.18 851 25.13 28.2 82.7 24 5.8 42.4
17:35 1022 30.18 851 25.13 28.1 82.5 24 6 42.8
17:40 1022 30.18 851 25.13 27.7 81.8 25 6.4 43.5
17:45 1022 30.18 851 25.13 27.3 81.2 26 6.4 43.6
17:50 1022 30.18 851 25.13 26.5 79.7 27 6.4 43.6
17:55 1022 30.18 851 25.13 26.4 79.5 26 5.9 42.6
18:00 1022 30.18 851 25.13 26.8 80.2 26 5.7 42.3
18:05 1021 30.15 851 25.13 27.2 81 25 5.6 42.1
18:10 1021 30.15 851 25.13 27.3 81.2 25 5.8 42.4
18:15 1021 30.15 851 25.13 26.7 80.1 26 6.1 43
18:20 1021 30.15 851 25.13 26.5 79.7 26 5.5 41.9
18:25 1021 30.15 851 25.13 26.4 79.4 27 6.2 43.2
18:30 1022 30.18 851 25.13 26.4 79.5 27 6 42.7
18:35 1022 30.18 851 25.13 27 80.6 26 6.1 42.9
18:40 1022 30.18 851 25.13 27 80.5 26 6.2 43.2
18:45 1022 30.18 851 25.13 27 80.6 26 6 42.9
18:50 1022 30.18 851 25.13 27 80.6 26 6.4 43.5
18:55 1022 30.18 851 25.13 26.7 80 26 6.1 42.9
19:00 1021 30.15 851 25.13 26.4 79.5 27 6.4 43.5
19:05 1022 30.18 851 25.13 26.6 79.8 26 6 42.8
19:10 1022 30.18 851 25.13 26.8 80.2 26 6.2 43.1
19:15 1022 30.18 851 25.13 26 78.7 27 6.1 42.9
19:20 1022 30.18 851 25.13 26.1 78.9 27 5.9 42.7
19:25 1022 30.18 851 25.13 26.1 79 27 5.6 42.2
19:30 1022 30.18 851 25.13 25.8 78.4 27 5.7 42.2
19:35 1022 30.18 851 25.13 25.5 77.9 28 5.8 42.5
19:40 1022 30.18 851 25.13 25.3 77.5 27 5.3 41.6
19:45 1022 30.18 851 25.13 25.3 77.6 27 5.4 41.7
19:50 1022 30.18 851 25.13 25.8 78.4 27 5.5 41.9
19:55 1022 30.18 851 25.13 26 78.9 26 5.2 41.4
20:00 1022 30.18 851 25.13 26 78.8 26 5.2 41.3
20:05 1022 30.18 851 25.13 25.7 78.2 27 5.8 42.4
20:10 1022 30.18 851 25.13 25.3 77.5 29 6.2 43.1
20:15 1022 30.18 851 25.13 25 77 29 6 42.8
20:20 1022 30.18 851 25.13 24.9 76.9 29 5.7 42.3
20:25 1022 30.18 851 25.13 24.9 76.8 29 5.7 42.3
20:30 1022 30.18 851 25.13 24.8 76.6 30 6.1 43
20:35 1022 30.18 851 25.13 24.7 76.5 30 6.3 43.4
20:40 1022 30.18 851 25.13 24.6 76.3 32 6.9 44.5
20:45 1022 30.18 851 25.13 24.4 75.9 33 7.2 45
20:50 1022 30.18 851 25.13 24.2 75.5 35 7.8 46.1
20:55 1022 30.18 851 25.13 23.9 75 37 8.6 47.4
21:00 1022 30.18 851 25.13 23.7 74.6 34 6.9 44.5
21:05 1022 30.18 851 25.13 23.7 74.6 38 8.7 47.6
21:10 1022 30.18 851 25.13 23.2 73.7 43 10.2 50.4
21:15 1022 30.18 851 25.13 22.5 72.5 48 11 51.7
21:20 1022 30.18 851 25.13 21.7 71 50 10.9 51.7
21:25 1022 30.18 851 25.13 21 69.8 52 10.8 51.5
21:30 1022 30.18 851 25.13 20.4 68.7 53 10.5 50.9
21:35 1022 30.18 851 25.13 20 67.9 56 11 51.9
21:40 1022 30.18 851 25.13 19.5 67 59 11.4 52.6
21:45 1022 30.18 851 25.13 19.1 66.3 60 11.2 52.2
21:50 1022 30.18 851 25.13 18.7 65.6 59 10.5 51
21:55 1022 30.18 852 25.16 18.4 65.1 55 9.4 49
22:00 1022 30.18 852 25.16 18.7 65.7 52 8.6 47.5
22:05 1022 30.18 852 25.16 18.9 66 51 8.6 47.6
22:10 1023 30.21 852 25.16 19 66.2 50 8.6 47.5
22:15 1023 30.21 852 25.16 19.2 66.5 50 8.7 47.6
22:20 1023 30.21 852 25.16 19 66.2 51 8.7 47.7
22:25 1023 30.21 852 25.16 18.8 65.9 53 9 48.3
22:30 1023 30.21 852 25.16 18.4 65 54 8.9 48
22:35 1023 30.21 852 25.16 18 64.5 54 8.6 47.5
22:40 1023 30.21 852 25.16 18 64.3 54 8.6 47.4
22:45 1023 30.21 852 25.16 17.8 64.1 56 8.9 48
22:50 1023 30.21 852 25.16 17.5 63.5 55 8.5 47.3
22:55 1023 30.21 852 25.16 17.5 63.6 55 8.4 47.1
23:00 1023 30.21 852 25.16 17.9 64.3 53 8.2 46.8
23:05 1023 30.21 852 25.16 18.3 64.9 52 8.5 47.3
23:10 1023 30.21 852 25.16 17.7 63.8 54 8.4 47.1
23:15 1023 30.21 852 25.16 17.8 64 54 8.3 47
23:20 1023 30.21 852 25.16 17.6 63.8 52 7.9 46.2
23:25 1023 30.21 852 25.16 17.9 64.3 51 7.8 46.1
23:30 1023 30.21 852 25.16 18.1 64.5 51 8 46.4
23:35 1023 30.21 852 25.16 18 64.4 51 7.8 46.1
23:40 1023 30.21 852 25.16 18.3 64.9 51 8 46.4
23:45 1023 30.21 852 25.16 18.4 65.1 48 7.2 45
23:50 1023 30.21 852 25.16 18.5 65.2 49 7.8 46
23:55 1023 30.21 852 25.16 18.3 65 51 8.1 46.5
24:00 1023 30.21 852 25.16 18.3 65 49 7.4 45.4